Latest Weather Observations for Ouse

IDT60801

Issued at 8:31 pm EDT Thursday 21 February 2019 (issued every 10 minutes, with the page automatically refreshed every 10 minutes)

About weather observations | Map of weather stations | Latest weather observations for TAS | Other Formats
Station Details ID: 095048 Name: OUSE FIRE STATION Lat: -42.48 Lon: 146.71 Height: 90.0 m
Data from the previous 72 hours. | See also: Recent months at Ouse
Date/Time
EDT
Temp
°C
App
Temp
°C
Dew
Point
°C
Rel
Hum
%
Delta-T
°C
Wind Press
QNH
hPa
Press
MSL
hPa
Rain since
9am
mm
Dir  Spd
km/h
Gust
km/h
Spd
kts
Gust
kts
21/08:30pm 14.6 11.1 8.8 68 2.9 WNW 17 24 9 13 1019.4 1019.2 0.0
21/08:00pm 15.3 11.7 8.5 64 3.4 NW 17 24 9 13 1018.9 1018.7 0.0
21/07:30pm 16.2 13.7 8.2 59 4.1 WNW 11 15 6 8 1018.4 1018.2 0.0
21/07:00pm 16.6 15.1 8.3 58 4.2 SSW 6 11 3 6 1018.0 1017.8 0.0
21/06:30pm 17.1 14.6 8.3 56 4.5 W 11 17 6 9 1017.7 1017.5 0.0
21/06:00pm 17.7 14.5 8.3 54 4.8 WSW 15 26 8 14 1017.7 1017.5 0.0
21/05:30pm 17.7 14.1 8.3 54 4.8 WSW 17 30 9 16 1017.1 1016.9 0.0
21/05:00pm 17.7 14.2 8.8 56 4.6 W 17 35 9 19 1016.8 1016.6 0.0
21/04:30pm 18.0 14.7 9.4 57 4.5 W 17 24 9 13 1016.7 1016.5 0.0
21/04:00pm 17.3 14.2 10.4 64 3.7 W 17 26 9 14 1016.7 1016.5 0.0
21/03:30pm 16.6 12.7 9.3 62 3.8 W 20 30 11 16 1016.4 1016.2 0.0
21/03:00pm 17.3 13.3 9.2 59 4.2 W 20 32 11 17 1016.3 1016.1 0.0
21/02:30pm 19.1 14.8 9.3 53 5.2 WSW 22 35 12 19 1016.0 1015.9 0.0
21/02:00pm 18.0 14.1 8.6 54 4.9 WSW 19 32 10 17 1015.9 1015.8 0.0
21/01:30pm 17.7 12.9 8.8 56 4.6 WNW 24 37 13 20 1015.6 1015.5 0.0
21/01:00pm 18.1 13.9 8.4 53 5.0 NW 20 35 11 19 1015.0 1014.9 0.0
21/12:30pm 16.9 12.8 7.8 55 4.6 W 19 33 10 18 1015.1 1015.0 0.0
21/12:00pm 16.4 13.1 9.6 64 3.6 NNW 17 24 9 13 1014.7 1014.6 0.0
21/11:30am 15.6 12.3 9.5 67 3.2 NW 17 24 9 13 1014.5 1014.4 0.0
21/11:00am 15.1 11.0 7.9 62 3.6 NW 19 32 10 17 1014.1 1014.0 0.0
21/10:30am 14.9 10.5 7.5 61 3.7 NW 20 35 11 19 1013.8 1013.7 0.0
21/10:00am 13.7 8.7 8.1 69 2.8 NW 24 35 13 19 1013.7 1013.6 0.0
21/09:30am 13.6 9.2 7.4 66 3.0 NW 20 33 11 18 1013.5 1013.4 0.0
21/09:00am 14.2 9.6 6.3 59 3.8 NW 20 33 11 18 1013.0 1012.8 0.0
21/08:30am 12.6 9.1 7.3 70 2.6 N 15 20 8 11 1013.0 1012.8 0.0
21/08:00am 12.4 8.5 6.9 69 2.7 NNW 17 26 9 14 1012.7 1012.5 0.0
21/07:30am 12.5 9.5 5.9 64 3.1 NNW 11 19 6 10 1012.0 1011.8 0.0
21/07:00am 12.1 9.0 5.5 64 3.1 NNW 11 17 6 9 1011.8 1011.6 0.0
21/06:30am 11.6 8.1 5.3 65 2.9 N 13 17 7 9 1011.7 1011.5 0.0
21/06:00am 11.4 7.8 5.1 65 2.9 N 13 19 7 10 1011.6 1011.4 0.0
21/05:30am 11.9 8.4 5.3 64 3.1 NNW 13 24 7 13 1011.7 1011.5 0.0
21/05:00am 11.1 7.6 5.6 69 2.6 N 13 20 7 11 1011.6 1011.4 0.0
21/04:30am 12.0 8.9 5.4 64 3.1 NNW 11 20 6 11 1011.6 1011.4 0.0
21/04:00am 12.2 8.9 4.7 60 3.4 N 11 15 6 8 1011.2 1011.0 0.0
21/03:30am 12.1 8.4 4.6 60 3.4 N 13 19 7 10 1011.2 1011.0 0.0
21/03:00am 12.0 8.7 4.7 61 3.3 N 11 15 6 8 1011.2 1011.0 0.0
21/02:30am 11.7 8.0 4.7 62 3.2 NNW 13 19 7 10 1011.2 1011.0 0.0
21/02:00am 12.0 8.0 4.7 61 3.3 NW 15 22 8 12 1011.5 1011.3 0.0
21/01:30am 12.8 7.8 4.5 57 3.8 NW 20 28 11 15 1011.5 1011.3 0.0
21/01:00am 12.5 8.1 4.7 59 3.6 NW 17 26 9 14 1011.2 1011.0 0.0
21/12:30am 12.2 8.2 4.7 60 3.4 NNW 15 20 8 11 1011.3 1011.1 0.0
21/12:00am 12.3 7.8 4.3 58 3.6 NW 17 22 9 12 1011.5 1011.3 0.0
 
Date/Time
EDT
Temp
°C
App
Temp
°C
Dew
Point
°C
Rel
Hum
%
Delta-T
°C
Wind Press
QNH
hPa
Press
MSL
hPa
Rain since
9am
mm
Dir  Spd
km/h
Gust
km/h
Spd
kts
Gust
kts
20/11:30pm 12.1 8.0 4.6 60 3.4 NNW 15 20 8 11 1011.4 1011.2 0.0
20/11:00pm 12.1 8.8 4.8 61 3.4 NNW 11 20 6 11 1011.6 1011.4 0.0
20/10:30pm 11.9 8.2 4.4 60 3.4 NNW 13 20 7 11 1011.7 1011.5 0.0
20/10:00pm 12.2 8.5 4.4 59 3.6 NW 13 17 7 9 1011.6 1011.4 0.0
20/09:30pm 12.8 8.7 4.5 57 3.8 NW 15 24 8 13 1011.2 1011.0 0.0
20/09:00pm 13.7 9.1 3.8 51 4.5 NW 17 30 9 16 1010.8 1010.6 0.0
20/08:30pm 13.7 8.8 4.3 53 4.3 NW 19 28 10 15 1010.6 1010.4 0.0
20/08:00pm 13.5 10.4 5.4 58 3.8 WNW 11 20 6 11 1010.3 1010.1 0.0
20/07:30pm 13.8 8.5 6.9 63 3.4 SW 24 39 13 21 1009.9 1009.7 0.0
20/07:00pm 15.5 12.0 5.4 51 4.8 WNW 13 28 7 15 1008.9 1008.7 0.0
20/06:30pm 15.6 11.0 5.5 51 4.8 NW 19 30 10 16 1008.7 1008.5 0.0
20/06:00pm 16.5 10.5 5.5 48 5.3 WNW 26 43 14 23 1008.6 1008.4 0.0
20/05:56pm 16.4 10.0 5.1 47 5.4 WNW 28 50 15 27 1008.6 1008.4 0.0
20/05:30pm 16.6 11.2 6.4 51 5.0 W 24 35 13 19 1008.5 1008.3 0.0
20/05:00pm 16.8 11.5 5.1 46 5.6 W 22 35 12 19 1007.8 1007.6 0.0
20/04:32pm 17.9 11.4 4.5 41 6.4 WNW 28 50 15 27 1007.8 1007.6 0.0
20/04:30pm 18.0 12.2 4.2 40 6.6 W 24 41 13 22 1007.7 1007.5 0.0
20/04:00pm 18.7 11.0 5.2 41 6.6 W 35 57 19 31 1007.5 1007.3 0.0
20/03:30pm 17.4 10.3 6.6 49 5.4 W 33 54 18 29 1007.4 1007.2 0.0
20/03:00pm 19.5 13.5 8.5 49 5.8 W 30 48 16 26 1007.1 1006.9 0.0
20/02:36pm 19.7 13.5 9.3 51 5.5 WNW 32 50 17 27 1006.7 1006.5 0.0
20/02:30pm 19.1 13.1 8.7 51 5.4 WNW 30 46 16 25 1006.7 1006.5 0.0
20/02:00pm 19.1 13.9 9.0 52 5.3 WNW 26 41 14 22 1006.5 1006.3 0.0
20/01:30pm 19.6 13.7 7.7 46 6.1 W 28 46 15 25 1006.7 1006.5 0.0
20/01:18pm 19.2 13.4 7.9 48 5.8 W 28 50 15 27 1006.6 1006.4 0.0
20/01:00pm 19.2 14.7 9.9 55 5.0 SW 24 39 13 21 1006.6 1006.4 0.0
20/12:30pm 19.0 12.7 8.9 52 5.3 WNW 32 56 17 30 1006.4 1006.2 0.0
20/12:00pm 18.7 12.3 8.7 52 5.2 WNW 32 52 17 28 1006.5 1006.3 0.0
20/11:38am 19.0 13.4 8.6 51 5.4 WNW 28 46 15 25 1006.5 1006.3 0.0
20/11:30am 18.4 12.8 8.9 54 5.0 WNW 28 43 15 23 1006.5 1006.3 0.0
20/11:00am 16.9 12.3 9.6 62 3.8 WNW 24 35 13 19 1006.9 1006.7 0.0
20/10:30am 16.4 13.4 9.3 63 3.7 WNW 15 22 8 12 1006.8 1006.6 0.0
20/10:00am 16.1 12.0 8.6 61 3.9 WNW 20 39 11 21 1006.9 1006.7 0.0
20/09:58am 16.1 12.2 8.6 61 3.8 WNW 19 39 10 21 1006.9 1006.7 0.0
20/09:30am 16.3 14.2 8.3 59 4.1 NNW 9 15 5 8 1006.6 1006.4 0.0
20/09:00am 16.4 14.3 8.4 59 4.1 NNW 9 15 5 8 1006.8 1006.6 0.0
20/08:30am 15.5 13.7 7.8 60 3.9 NW 7 13 4 7 1006.9 1006.7 0.0
20/08:00am 15.2 13.0 8.0 62 3.6 NNW 9 15 5 8 1006.8 1006.6 0.0
20/07:30am 13.4 10.3 7.4 67 2.9 NNW 13 17 7 9 1006.7 1006.5 0.0
20/07:00am 11.3 8.7 6.2 71 2.4 N 9 11 5 6 1006.7 1006.5 0.0
20/06:30am 12.1 9.9 6.2 67 2.8 NNW 7 9 4 5 1006.9 1006.7 0.0
20/06:00am 12.6 10.4 6.2 65 3.1 NNW 7 11 4 6 1006.9 1006.7 0.0
20/05:30am 13.2 10.2 6.1 62 3.4 NNW 11 13 6 7 1007.3 1007.1 0.0
20/05:00am 12.7 10.1 6.1 64 3.1 N 9 15 5 8 1007.7 1007.5 0.0
20/04:30am 12.8 10.1 5.7 62 3.3 N 9 15 5 8 1007.8 1007.6 0.0
20/04:00am 13.0 9.9 5.4 60 3.6 N 11 19 6 10 1008.4 1008.2 0.0
20/03:30am 12.2 9.5 5.6 64 3.1 N 9 13 5 7 1008.6 1008.4 0.0
20/03:00am 12.5 9.8 5.7 63 3.2 NNW 9 11 5 6 1008.7 1008.5 0.0
20/02:30am 11.5 9.0 6.6 72 2.3 N 9 11 5 6 1009.0 1008.8 0.0
20/02:00am 11.3 9.2 6.8 74 2.2 N 7 11 4 6 1009.3 1009.1 0.0
20/01:30am 11.2 9.1 6.5 73 2.2 N 7 9 4 5 1009.9 1009.7 0.0
20/01:00am 11.8 8.9 6.7 71 2.4 NW 11 15 6 8 1009.9 1009.7 0.0
20/12:30am 12.5 10.1 6.8 68 2.7 NNW 9 15 5 8 1010.0 1009.8 0.0
20/12:00am 12.9 10.5 7.1 68 2.8 NNW 9 11 5 6 1010.3 1010.1 0.0
 
Date/Time
EDT
Temp
°C
App
Temp
°C
Dew
Point
°C
Rel
Hum
%
Delta-T
°C
Wind Press
QNH
hPa
Press
MSL
hPa
Rain since
9am
mm
Dir  Spd
km/h
Gust
km/h
Spd
kts
Gust
kts
19/11:30pm 13.1 10.7 6.9 66 3.0 NNW 9 13 5 7 1010.2 1010.0 0.0
19/11:00pm 13.2 10.4 7.0 66 3.0 NW 11 15 6 8 1010.4 1010.2 0.0
19/10:30pm 13.1 10.7 6.9 66 3.0 N 9 13 5 7 1010.5 1010.3 0.0
19/10:00pm 13.3 10.4 6.6 64 3.2 N 11 17 6 9 1010.7 1010.5 0.0
19/09:30pm 13.6 10.7 6.5 62 3.4 WNW 11 17 6 9 1010.7 1010.5 0.0
19/09:00pm 13.9 10.2 6.5 61 3.6 WNW 15 22 8 12 1010.3 1010.1 0.0
19/08:30pm 13.9 9.7 7.4 65 3.2 W 19 26 10 14 1009.9 1009.7 0.0
19/08:00pm 14.7 10.4 6.8 59 3.9 WNW 19 26 10 14 1009.3 1009.1 0.0
19/07:30pm 14.9 11.3 6.7 58 4.0 NW 15 22 8 12 1009.0 1008.8 0.0
19/07:00pm 15.7 13.3 7.2 57 4.2 WNW 9 17 5 9 1008.8 1008.6 0.0
19/06:30pm 15.4 12.4 7.9 61 3.8 WNW 13 20 7 11 1008.8 1008.6 0.0
19/06:00pm 15.5 11.1 7.5 59 4.0 WNW 20 32 11 17 1008.7 1008.5 0.0
19/05:30pm 16.1 10.9 7.1 55 4.5 WNW 24 35 13 19 1008.4 1008.2 0.0
19/05:00pm 15.9 10.6 6.9 55 4.5 NW 24 35 13 19 1008.1 1007.9 0.0
19/04:30pm 16.3 11.8 7.0 54 4.6 WNW 20 32 11 17 1008.2 1008.0 0.0
19/04:00pm 16.4 11.1 6.8 53 4.8 WNW 24 41 13 22 1008.1 1007.9 0.0
19/03:30pm 16.8 12.2 6.3 50 5.2 NW 20 41 11 22 1008.0 1007.8 0.0
19/03:00pm 17.8 12.5 6.7 48 5.6 NW 24 39 13 21 1008.0 1007.8 0.0
19/02:30pm 16.2 10.7 6.1 51 4.9 NW 24 37 13 20 1007.8 1007.6 0.0
19/02:00pm 16.5 10.6 5.8 49 5.2 NW 26 39 14 21 1007.6 1007.4 0.0
19/01:39pm 16.7 11.1 5.3 47 5.5 NW 24 46 13 25 1007.5 1007.3 0.0
19/01:30pm 16.0 11.0 4.4 46 5.4 WNW 20 41 11 22 1007.5 1007.3 0.0
19/01:00pm 16.1 10.3 4.5 46 5.5 NW 24 37 13 20 1007.3 1007.1 0.0
19/12:30pm 15.5 10.8 6.2 54 4.5 NW 20 30 11 16 1007.7 1007.5 0.0
19/12:00pm 15.1 8.9 6.1 55 4.4 WNW 28 44 15 24 1007.4 1007.2 0.0
19/11:30am 15.2 9.9 5.1 51 4.8 NNW 22 35 12 19 1007.2 1007.0 0.0
19/11:00am 14.3 8.9 4.3 51 4.6 NW 22 35 12 19 1007.2 1007.0 0.0
19/10:30am 14.1 9.6 4.1 51 4.6 NW 17 30 9 16 1006.8 1006.6 0.0
19/10:00am 13.7 8.4 4.8 55 4.2 WNW 22 37 12 20 1006.7 1006.5 0.0
19/09:30am 12.9 6.8 6.5 65 3.1 NW 28 37 15 20 1006.4 1006.2 0.0
19/09:00am 14.0 8.4 5.6 57 4.0 NW 24 33 13 18 1005.8 1005.6 0.4
19/08:30am 14.0 9.6 4.9 54 4.3 NNW 17 28 9 15 1005.4 1005.2 0.4
19/08:00am 13.2 9.1 4.6 56 4.0 NW 15 26 8 14 1005.2 1005.0 0.4
19/07:30am 11.8 8.6 5.2 64 3.1 NW 11 19 6 10 1004.9 1004.7 0.4
19/07:00am 11.5 7.5 4.9 64 3.0 NW 15 22 8 12 1004.6 1004.5 0.4
19/06:30am 11.4 7.0 4.6 63 3.1 NNW 17 24 9 13 1004.1 1004.0 0.4
19/06:00am 11.6 7.2 4.8 63 3.1 NNW 17 28 9 15 1004.2 1004.1 0.4
19/05:30am 12.0 7.5 4.2 59 3.5 NW 17 28 9 15 1004.1 1004.0 0.4
19/05:00am 11.8 7.2 3.8 58 3.6 NW 17 28 9 15 1003.9 1003.7 0.4
19/04:30am 12.3 7.8 4.3 58 3.6 NW 17 28 9 15 1004.1 1004.0 0.4
19/04:00am 12.0 7.0 4.5 60 3.4 NW 20 33 11 18 1004.0 1003.9 0.4
19/03:30am 12.0 7.0 4.5 60 3.4 NW 20 39 11 21 1004.0 1003.9 0.4
19/03:00am 11.7 7.5 4.0 59 3.5 NW 15 24 8 13 1004.2 1004.1 0.4
19/02:30am 11.7 6.7 4.4 61 3.3 NW 20 35 11 19 1004.1 1004.0 0.4
19/02:00am 11.3 6.8 4.3 62 3.2 NW 17 24 9 13 1004.2 1004.1 0.4
19/01:30am 11.5 7.2 5.2 65 2.9 NW 17 26 9 14 1004.2 1004.1 0.4
19/01:00am 11.3 8.0 4.3 62 3.2 NW 11 15 6 8 1004.3 1004.2 0.4
19/12:30am 11.3 6.8 4.3 62 3.2 NW 17 30 9 16 1004.3 1004.2 0.4
19/12:00am 11.1 6.9 5.6 69 2.6 N 17 24 9 13 1004.6 1004.5 0.4
 
Date/Time
EDT
Temp
°C
App
Temp
°C
Dew
Point
°C
Rel
Hum
%
Delta-T
°C
Wind Press
QNH
hPa
Press
MSL
hPa
Rain since
9am
mm
Dir  Spd
km/h
Gust
km/h
Spd
kts
Gust
kts
18/11:30pm 11.5 7.4 6.2 70 2.5 NW 17 26 9 14 1004.9 1004.7 0.4
18/11:00pm 10.6 7.6 6.0 73 2.2 N 11 15 6 8 1004.4 1004.3 0.4
18/10:30pm 11.5 7.7 6.0 69 2.6 NNW 15 24 8 13 1004.3 1004.2 0.4
18/10:00pm 11.7 7.9 5.8 67 2.8 WNW 15 22 8 12 1004.4 1004.3 0.4
18/09:30pm 11.9 7.6 5.3 64 3.1 NW 17 26 9 14 1003.8 1003.6 0.4
18/09:00pm 12.3 7.9 6.4 67 2.8 W 19 30 10 16 1003.3 1003.1 0.4

Other formats

Comma delimited format used in spreadsheet applications
http://www.bom.gov.au/fwo/IDT60801/IDT60801.94957.axf

JavaScript Object Notation format (JSON) in row-major order
http://www.bom.gov.au/fwo/IDT60801/IDT60801.94957.json

Data quality

Most of these data are generated automatically and are frequently updated. Quality checks on data are not normally performed. It is possible for incorrect values to appear. Refer to information at About Latest Weather Observations and please check the disclaimer before using these data.